sensor_id;sensor_type;location;lat;lon;timestamp;pressure;altitude;pressure_sealevel;temperature;humidity
70521;BME280;58442;52.716;23.560;2023-03-05T00:01:13;100584.31;;;-1.57;64.76
70521;BME280;58442;52.716;23.560;2023-03-05T00:03:21;100591.76;;;-1.59;64.80
70521;BME280;58442;52.716;23.560;2023-03-05T00:05:22;100578.71;;;-1.60;64.72
70521;BME280;58442;52.716;23.560;2023-03-05T00:07:24;100578.71;;;-1.60;64.76
70521;BME280;58442;52.716;23.560;2023-03-05T00:09:25;100584.05;;;-1.60;64.77
70521;BME280;58442;52.716;23.560;2023-03-05T00:11:36;100576.33;;;-1.62;64.73
70521;BME280;58442;52.716;23.560;2023-03-05T00:13:38;100576.60;;;-1.63;64.70
70521;BME280;58442;52.716;23.560;2023-03-05T00:15:40;100580.34;;;-1.64;64.75
70521;BME280;58442;52.716;23.560;2023-03-05T00:17:42;100576.05;;;-1.66;64.75
70521;BME280;58442;52.716;23.560;2023-03-05T00:19:51;100579.78;;;-1.67;64.76
70521;BME280;58442;52.716;23.560;2023-03-05T00:21:53;100581.14;;;-1.69;64.72
70521;BME280;58442;52.716;23.560;2023-03-05T00:23:56;100582.46;;;-1.72;64.80
70521;BME280;58442;52.716;23.560;2023-03-05T00:26:00;100585.66;;;-1.75;64.87
70521;BME280;58442;52.716;23.560;2023-03-05T00:28:07;100580.89;;;-1.78;64.92
70521;BME280;58442;52.716;23.560;2023-03-05T00:30:09;100573.95;;;-1.79;64.92
70521;BME280;58442;52.716;23.560;2023-03-05T00:32:11;100579.27;;;-1.79;64.94
70521;BME280;58442;52.716;23.560;2023-03-05T00:34:14;100576.60;;;-1.79;64.98
70521;BME280;58442;52.716;23.560;2023-03-05T00:36:22;100567.29;;;-1.81;64.96
70521;BME280;58442;52.716;23.560;2023-03-05T00:38:24;100563.32;;;-1.84;64.98
70521;BME280;58442;52.716;23.560;2023-03-05T00:40:26;100563.04;;;-1.87;65.04
70521;BME280;58442;52.716;23.560;2023-03-05T00:42:27;100564.91;;;-1.88;65.06
70521;BME280;58442;52.716;23.560;2023-03-05T00:44:36;100564.38;;;-1.90;65.04
70521;BME280;58442;52.716;23.560;2023-03-05T00:46:38;100560.66;;;-1.94;65.08
70521;BME280;58442;52.716;23.560;2023-03-05T00:48:40;100564.38;;;-1.95;65.13
70521;BME280;58442;52.716;23.560;2023-03-05T00:50:41;100568.40;;;-1.98;65.22
70521;BME280;58442;52.716;23.560;2023-03-05T00:52:52;100555.08;;;-1.98;65.28
70521;BME280;58442;52.716;23.560;2023-03-05T00:54:54;100561.99;;;-1.97;65.24
70521;BME280;58442;52.716;23.560;2023-03-05T00:56:55;100566.53;;;-1.97;65.22
70521;BME280;58442;52.716;23.560;2023-03-05T00:58:56;100557.99;;;-1.99;65.24
70521;BME280;58442;52.716;23.560;2023-03-05T01:01:07;100555.59;;;-2.01;65.28
70521;BME280;58442;52.716;23.560;2023-03-05T01:03:09;100553.21;;;-2.02;65.28
70521;BME280;58442;52.716;23.560;2023-03-05T01:05:12;100549.74;;;-2.03;65.26
70521;BME280;58442;52.716;23.560;2023-03-05T01:07:13;100549.74;;;-2.03;65.28
70521;BME280;58442;52.716;23.560;2023-03-05T01:09:22;100546.57;;;-2.05;65.25
70521;BME280;58442;52.716;23.560;2023-03-05T01:11:25;100551.10;;;-2.05;65.21
70521;BME280;58442;52.716;23.560;2023-03-05T01:13:26;100549.48;;;-2.06;65.24
70521;BME280;58442;52.716;23.560;2023-03-05T01:15:28;100556.41;;;-2.05;65.25
70521;BME280;58442;52.716;23.560;2023-03-05T01:17:39;100549.23;;;-2.05;65.21
70521;BME280;58442;52.716;23.560;2023-03-05T01:19:40;100548.95;;;-2.03;65.15
70521;BME280;58442;52.716;23.560;2023-03-05T01:21:41;100541.24;;;-2.05;65.19
70521;BME280;58442;52.716;23.560;2023-03-05T01:23:43;100539.65;;;-2.06;65.17
70521;BME280;58442;52.716;23.560;2023-03-05T01:25:56;100544.98;;;-2.06;65.17
70521;BME280;58442;52.716;23.560;2023-03-05T01:27:58;100542.03;;;-2.04;65.16
70521;BME280;58442;52.716;23.560;2023-03-05T01:30:02;100540.45;;;-2.05;65.09
70521;BME280;58442;52.716;23.560;2023-03-05T01:32:04;100540.45;;;-2.05;65.08
70521;BME280;58442;52.716;23.560;2023-03-05T01:34:07;100540.70;;;-2.07;65.03
70521;BME280;58442;52.716;23.560;2023-03-05T01:36:11;100541.49;;;-2.06;65.03
70521;BME280;58442;52.716;23.560;2023-03-05T01:38:16;100541.76;;;-2.08;65.04
70521;BME280;58442;52.716;23.560;2023-03-05T01:40:22;100540.70;;;-2.07;65.02
70521;BME280;58442;52.716;23.560;2023-03-05T01:42:26;100542.55;;;-2.07;64.99
70521;BME280;58442;52.716;23.560;2023-03-05T01:44:28;100546.28;;;-2.08;64.97
70521;BME280;58442;52.716;23.560;2023-03-05T01:46:34;100539.37;;;-2.09;65.00
70521;BME280;58442;52.716;23.560;2023-03-05T01:48:36;100531.66;;;-2.11;65.01
70521;BME280;58442;52.716;23.560;2023-03-05T01:50:37;100532.45;;;-2.10;64.99
70521;BME280;58442;52.716;23.560;2023-03-05T01:52:41;100530.87;;;-2.11;64.95
70521;BME280;58442;52.716;23.560;2023-03-05T01:54:47;100528.45;;;-2.13;65.00
70521;BME280;58442;52.716;23.560;2023-03-05T01:56:51;100535.63;;;-2.13;65.01
70521;BME280;58442;52.716;23.560;2023-03-05T01:58:56;100535.63;;;-2.13;64.99
70521;BME280;58442;52.716;23.560;2023-03-05T02:01:14;100531.38;;;-2.14;64.97
70521;BME280;58442;52.716;23.560;2023-03-05T02:03:17;100534.59;;;-2.17;64.95
70521;BME280;58442;52.716;23.560;2023-03-05T02:05:24;100540.98;;;-2.18;64.98
70521;BME280;58442;52.716;23.560;2023-03-05T02:07:28;100533.24;;;-2.20;65.04
70521;BME280;58442;52.716;23.560;2023-03-05T02:09:30;100537.77;;;-2.21;65.02
70521;BME280;58442;52.716;23.560;2023-03-05T02:11:32;100537.77;;;-2.21;65.00
70521;BME280;58442;52.716;23.560;2023-03-05T02:13:35;100535.11;;;-2.21;64.98
70521;BME280;58442;52.716;23.560;2023-03-05T02:15:40;100532.45;;;-2.21;64.97
70521;BME280;58442;52.716;23.560;2023-03-05T02:17:44;100529.54;;;-2.19;64.96
70521;BME280;58442;52.716;23.560;2023-03-05T02:19:51;100527.67;;;-2.18;64.94
70521;BME280;58442;52.716;23.560;2023-03-05T02:21:53;100527.67;;;-2.18;64.91
70521;BME280;58442;52.716;23.560;2023-03-05T02:23:54;100526.60;;;-2.17;64.87
70521;BME280;58442;52.716;23.560;2023-03-05T02:25:59;100530.34;;;-2.18;64.85
70521;BME280;58442;52.716;23.560;2023-03-05T02:30:10;100529.78;;;-2.21;64.84
70521;BME280;58442;52.716;23.560;2023-03-05T02:32:12;100530.85;;;-2.22;64.88
70521;BME280;58442;52.716;23.560;2023-03-05T02:34:14;100525.53;;;-2.22;64.89
70521;BME280;58442;52.716;23.560;2023-03-05T02:36:16;100526.33;;;-2.21;64.87
70521;BME280;58442;52.716;23.560;2023-03-05T02:38:19;100526.09;;;-2.19;64.84
70521;BME280;58442;52.716;23.560;2023-03-05T02:40:21;100522.87;;;-2.22;64.78
70521;BME280;58442;52.716;23.560;2023-03-05T02:42:29;100520.48;;;-2.23;64.83
70521;BME280;58442;52.716;23.560;2023-03-05T02:44:33;100522.34;;;-2.24;64.81
70521;BME280;58442;52.716;23.560;2023-03-05T02:46:35;100522.63;;;-2.25;64.82
70521;BME280;58442;52.716;23.560;2023-03-05T02:48:36;100527.38;;;-2.27;64.84
70521;BME280;58442;52.716;23.560;2023-03-05T02:50:46;100525.53;;;-2.27;64.83
70521;BME280;58442;52.716;23.560;2023-03-05T02:52:48;100522.07;;;-2.27;64.75
70521;BME280;58442;52.716;23.560;2023-03-05T02:54:49;100519.68;;;-2.29;64.78
70521;BME280;58442;52.716;23.560;2023-03-05T02:56:51;100522.61;;;-2.30;64.82
70521;BME280;58442;52.716;23.560;2023-03-05T02:59:00;100527.14;;;-2.31;64.81
70521;BME280;58442;52.716;23.560;2023-03-05T03:01:01;100521.81;;;-2.31;64.81
70521;BME280;58442;52.716;23.560;2023-03-05T03:03:02;100527.94;;;-2.30;64.74
70521;BME280;58442;52.716;23.560;2023-03-05T03:05:04;100525.82;;;-2.33;64.74
70521;BME280;58442;52.716;23.560;2023-03-05T03:07:15;100523.40;;;-2.35;64.78
70521;BME280;58442;52.716;23.560;2023-03-05T03:09:17;100519.15;;;-2.36;64.68
70521;BME280;58442;52.716;23.560;2023-03-05T03:11:18;100528.20;;;-2.37;64.72
70521;BME280;58442;52.716;23.560;2023-03-05T03:13:24;100525.27;;;-2.35;64.68
70521;BME280;58442;52.716;23.560;2023-03-05T03:15:30;100517.56;;;-2.37;64.65
70521;BME280;58442;52.716;23.560;2023-03-05T03:17:34;100520.22;;;-2.37;64.60
70521;BME280;58442;52.716;23.560;2023-03-05T03:19:36;100527.41;;;-2.37;64.56
70521;BME280;58442;52.716;23.560;2023-03-05T03:21:38;100518.09;;;-2.40;64.61
70521;BME280;58442;52.716;23.560;2023-03-05T03:23:45;100513.58;;;-2.39;64.60
70521;BME280;58442;52.716;23.560;2023-03-05T03:25:46;100511.72;;;-2.39;64.46
70521;BME280;58442;52.716;23.560;2023-03-05T03:27:48;100511.95;;;-2.40;64.49
70521;BME280;58442;52.716;23.560;2023-03-05T03:29:49;100514.10;;;-2.42;64.53
70521;BME280;58442;52.716;23.560;2023-03-05T03:32:00;100513.30;;;-2.43;64.54
70521;BME280;58442;52.716;23.560;2023-03-05T03:34:02;100512.50;;;-2.43;64.49
70521;BME280;58442;52.716;23.560;2023-03-05T03:36:03;100511.70;;;-2.44;64.50
70521;BME280;58442;52.716;23.560;2023-03-05T03:38:05;100513.30;;;-2.43;64.50
70521;BME280;58442;52.716;23.560;2023-03-05T03:40:15;100509.84;;;-2.43;64.45
70521;BME280;58442;52.716;23.560;2023-03-05T03:42:18;100515.16;;;-2.43;64.41
70521;BME280;58442;52.716;23.560;2023-03-05T03:44:20;100509.32;;;-2.45;64.37
70521;BME280;58442;52.716;23.560;2023-03-05T03:46:21;100510.38;;;-2.46;64.41
70521;BME280;58442;52.716;23.560;2023-03-05T03:48:30;100502.65;;;-2.48;64.42
70521;BME280;58442;52.716;23.560;2023-03-05T03:50:32;100511.42;;;-2.48;64.36
70521;BME280;58442;52.716;23.560;2023-03-05T03:52:33;100496.02;;;-2.51;64.38
70521;BME280;58442;52.716;23.560;2023-03-05T03:54:35;100502.13;;;-2.50;64.42
70521;BME280;58442;52.716;23.560;2023-03-05T03:56:46;100500.53;;;-2.51;64.36
70521;BME280;58442;52.716;23.560;2023-03-05T03:58:51;100499.73;;;-2.52;64.35
70521;BME280;58442;52.716;23.560;2023-03-05T04:00:53;100497.87;;;-2.51;64.32
70521;BME280;58442;52.716;23.560;2023-03-05T04:02:54;100496.80;;;-2.50;64.29
70521;BME280;58442;52.716;23.560;2023-03-05T04:05:01;100495.21;;;-2.51;64.17
70521;BME280;58442;52.716;23.560;2023-03-05T04:07:03;100486.70;;;-2.53;64.17
70521;BME280;58442;52.716;23.560;2023-03-05T04:09:05;100484.30;;;-2.55;64.20
70521;BME280;58442;52.716;23.560;2023-03-05T04:11:08;100490.41;;;-2.54;64.19
70521;BME280;58442;52.716;23.560;2023-03-05T04:13:16;100488.81;;;-2.55;64.12
70521;BME280;58442;52.716;23.560;2023-03-05T04:15:17;100491.74;;;-2.57;64.12
70521;BME280;58442;52.716;23.560;2023-03-05T04:17:18;100491.48;;;-2.60;64.11
70521;BME280;58442;52.716;23.560;2023-03-05T04:19:20;100485.62;;;-2.62;64.18
70521;BME280;58442;52.716;23.560;2023-03-05T04:21:31;100484.30;;;-2.65;64.24
70521;BME280;58442;52.716;23.560;2023-03-05T04:23:32;100485.09;;;-2.64;64.22
70521;BME280;58442;52.716;23.560;2023-03-05T04:25:34;100484.02;;;-2.63;64.19
70521;BME280;58442;52.716;23.560;2023-03-05T04:27:35;100482.44;;;-2.64;64.15
70521;BME280;58442;52.716;23.560;2023-03-05T04:29:46;100479.26;;;-2.66;64.15
70521;BME280;58442;52.716;23.560;2023-03-05T04:31:47;100484.57;;;-2.66;64.16
70521;BME280;58442;52.716;23.560;2023-03-05T04:33:48;100484.57;;;-2.66;64.14
70521;BME280;58442;52.716;23.560;2023-03-05T04:35:50;100479.49;;;-2.68;64.06
70521;BME280;58442;52.716;23.560;2023-03-05T04:38:01;100479.25;;;-2.71;64.08
70521;BME280;58442;52.716;23.560;2023-03-05T04:40:03;100489.36;;;-2.73;64.11
70521;BME280;58442;52.716;23.560;2023-03-05T04:42:05;100485.07;;;-2.75;64.15
70521;BME280;58442;52.716;23.560;2023-03-05T04:44:06;100490.39;;;-2.75;64.16
70521;BME280;58442;52.716;23.560;2023-03-05T04:46:16;100488.55;;;-2.74;64.13
70521;BME280;58442;52.716;23.560;2023-03-05T04:48:17;100487.20;;;-2.77;64.04
70521;BME280;58442;52.716;23.560;2023-03-05T04:50:19;100481.89;;;-2.77;64.03
70521;BME280;58442;52.716;23.560;2023-03-05T04:52:20;100485.62;;;-2.78;64.08
70521;BME280;58442;52.716;23.560;2023-03-05T04:54:32;100481.37;;;-2.79;64.05
70521;BME280;58442;52.716;23.560;2023-03-05T04:56:33;100485.09;;;-2.80;64.07
70521;BME280;58442;52.716;23.560;2023-03-05T04:58:35;100484.30;;;-2.80;64.06
70521;BME280;58442;52.716;23.560;2023-03-05T05:00:36;100481.63;;;-2.80;64.06
70521;BME280;58442;52.716;23.560;2023-03-05T05:02:48;100476.83;;;-2.83;64.06
70521;BME280;58442;52.716;23.560;2023-03-05T05:04:53;100484.28;;;-2.85;64.10
70521;BME280;58442;52.716;23.560;2023-03-05T05:06:57;100481.10;;;-2.87;64.07
70521;BME280;58442;52.716;23.560;2023-03-05T05:08:59;100482.96;;;-2.88;64.14
70521;BME280;58442;52.716;23.560;2023-03-05T05:11:05;100480.30;;;-2.88;64.16
70521;BME280;58442;52.716;23.560;2023-03-05T05:13:06;100481.10;;;-2.87;64.11
70521;BME280;58442;52.716;23.560;2023-03-05T05:15:08;100485.34;;;-2.86;64.11
70521;BME280;58442;52.716;23.560;2023-03-05T05:17:10;100488.80;;;-2.86;64.13
70521;BME280;58442;52.716;23.560;2023-03-05T05:19:17;100486.68;;;-2.84;64.17
70521;BME280;58442;52.716;23.560;2023-03-05T05:21:18;100485.60;;;-2.83;64.14
70521;BME280;58442;52.716;23.560;2023-03-05T05:23:20;100488.82;;;-2.81;64.08
70521;BME280;58442;52.716;23.560;2023-03-05T05:25:21;100489.34;;;-2.79;64.07
70521;BME280;58442;52.716;23.560;2023-03-05T05:27:32;100490.93;;;-2.78;64.02
70521;BME280;58442;52.716;23.560;2023-03-05T05:29:33;100493.33;;;-2.76;64.00
70521;BME280;58442;52.716;23.560;2023-03-05T05:31:34;100488.80;;;-2.76;63.98
70521;BME280;58442;52.716;23.560;2023-03-05T05:33:36;100492.01;;;-2.73;63.92
70521;BME280;58442;52.716;23.560;2023-03-05T05:35:47;100480.31;;;-2.72;63.89
70521;BME280;58442;52.716;23.560;2023-03-05T05:37:48;100500.52;;;-2.71;63.81
70521;BME280;58442;52.716;23.560;2023-03-05T05:39:50;100495.20;;;-2.71;63.83
70521;BME280;58442;52.716;23.560;2023-03-05T05:41:52;100494.13;;;-2.70;63.82
70521;BME280;58442;52.716;23.560;2023-03-05T05:44:02;100501.84;;;-2.69;63.81
70521;BME280;58442;52.716;23.560;2023-03-05T05:46:06;100494.66;;;-2.68;63.78
70521;BME280;58442;52.716;23.560;2023-03-05T05:48:08;100492.55;;;-2.66;63.75
70521;BME280;58442;52.716;23.560;2023-03-05T05:50:10;100498.66;;;-2.66;63.75
70521;BME280;58442;52.716;23.560;2023-03-05T05:52:17;100490.41;;;-2.64;63.75
70521;BME280;58442;52.716;23.560;2023-03-05T05:54:18;100490.95;;;-2.62;63.67
70521;BME280;58442;52.716;23.560;2023-03-05T05:56:20;100495.19;;;-2.61;63.63
70521;BME280;58442;52.716;23.560;2023-03-05T05:58:21;100492.02;;;-2.58;63.64
70521;BME280;58442;52.716;23.560;2023-03-05T06:00:32;100496.02;;;-2.51;63.59
70521;BME280;58442;52.716;23.560;2023-03-05T06:02:40;100498.40;;;-2.44;63.48
70521;BME280;58442;52.716;23.560;2023-03-05T06:04:41;100489.88;;;-2.36;63.26
70521;BME280;58442;52.716;23.560;2023-03-05T06:06:42;100490.13;;;-2.27;63.27
70521;BME280;58442;52.716;23.560;2023-03-05T06:08:48;100489.86;;;-2.21;63.29
70521;BME280;58442;52.716;23.560;2023-03-05T06:10:54;100487.47;;;-2.12;63.15
70521;BME280;58442;52.716;23.560;2023-03-05T06:12:55;100495.42;;;-2.02;63.07
70521;BME280;58442;52.716;23.560;2023-03-05T06:14:57;100492.48;;;-1.95;62.98
70521;BME280;58442;52.716;23.560;2023-03-05T06:17:02;100492.99;;;-1.88;62.97
70521;BME280;58442;52.716;23.560;2023-03-05T06:19:04;100490.85;;;-1.81;62.81
70521;BME280;58442;52.716;23.560;2023-03-05T06:21:09;100492.16;;;-1.73;62.82
70521;BME280;58442;52.716;23.560;2023-03-05T06:23:11;100491.34;;;-1.63;62.68
70521;BME280;58442;52.716;23.560;2023-03-05T06:25:18;100485.73;;;-1.57;62.57
70521;BME280;58442;52.716;23.560;2023-03-05T06:27:19;100497.14;;;-1.51;62.52
70521;BME280;58442;52.716;23.560;2023-03-05T06:29:20;100486.98;;;-1.44;62.44
70521;BME280;58442;52.716;23.560;2023-03-05T06:31:24;100487.52;;;-1.37;62.42
70521;BME280;58442;52.716;23.560;2023-03-05T06:33:34;100479.73;;;-1.28;62.34
70521;BME280;58442;52.716;23.560;2023-03-05T06:35:37;100479.95;;;-1.20;62.21
70521;BME280;58442;52.716;23.560;2023-03-05T06:37:42;100490.02;;;-1.12;62.06
70521;BME280;58442;52.716;23.560;2023-03-05T06:39:44;100475.59;;;-1.05;62.09
70521;BME280;58442;52.716;23.560;2023-03-05T06:41:50;100483.55;;;-0.95;61.99
70521;BME280;58442;52.716;23.560;2023-03-05T06:43:52;100479.50;;;-0.88;61.88
70521;BME280;58442;52.716;23.560;2023-03-05T06:46:02;100470.61;;;-0.78;61.79
70521;BME280;58442;52.716;23.560;2023-03-05T06:48:04;100479.90;;;-0.70;61.65
70521;BME280;58442;52.716;23.560;2023-03-05T06:50:06;100477.99;;;-0.65;61.57
70521;BME280;58442;52.716;23.560;2023-03-05T06:52:09;100474.21;;;-0.59;61.42
70521;BME280;58442;52.716;23.560;2023-03-05T06:54:14;100471.50;;;-0.53;61.42
70521;BME280;58442;52.716;23.560;2023-03-05T06:56:17;100474.93;;;-0.48;61.26
70521;BME280;58442;52.716;23.560;2023-03-05T06:58:19;100474.06;;;-0.43;61.21
70521;BME280;58442;52.716;23.560;2023-03-05T07:00:21;100475.91;;;-0.39;61.16
70521;BME280;58442;52.716;23.560;2023-03-05T07:02:25;100477.47;;;-0.33;61.11
70521;BME280;58442;52.716;23.560;2023-03-05T07:04:27;100469.38;;;-0.28;61.04
70521;BME280;58442;52.716;23.560;2023-03-05T07:06:35;100473.10;;;-0.23;60.92
70521;BME280;58442;52.716;23.560;2023-03-05T07:08:38;100466.67;;;-0.22;60.73
70521;BME280;58442;52.716;23.560;2023-03-05T07:10:41;100471.73;;;-0.21;60.88
70521;BME280;58442;52.716;23.560;2023-03-05T07:12:42;100465.34;;;-0.20;60.85
70521;BME280;58442;52.716;23.560;2023-03-05T07:14:48;100466.92;;;-0.19;60.74
70521;BME280;58442;52.716;23.560;2023-03-05T07:16:50;100467.15;;;-0.15;60.74
70521;BME280;58442;52.716;23.560;2023-03-05T07:18:52;100471.65;;;-0.11;60.68
70521;BME280;58442;52.716;23.560;2023-03-05T07:20:54;100466.25;;;-0.06;60.58
70521;BME280;58442;52.716;23.560;2023-03-05T07:23:03;100464.05;;;0.02;60.46
70521;BME280;58442;52.716;23.560;2023-03-05T07:25:05;100459.45;;;0.07;60.32
70521;BME280;58442;52.716;23.560;2023-03-05T07:27:07;100457.49;;;0.13;60.29
70521;BME280;58442;52.716;23.560;2023-03-05T07:29:08;100467.59;;;0.21;60.33
70521;BME280;58442;52.716;23.560;2023-03-05T07:31:21;100456.82;;;0.26;60.15
70521;BME280;58442;52.716;23.560;2023-03-05T07:33:23;100455.68;;;0.32;60.09
70521;BME280;58442;52.716;23.560;2023-03-05T07:35:25;100454.04;;;0.36;59.96
70521;BME280;58442;52.716;23.560;2023-03-05T07:37:26;100452.89;;;0.42;59.92
70521;BME280;58442;52.716;23.560;2023-03-05T07:39:33;100450.14;;;0.47;59.85
70521;BME280;58442;52.716;23.560;2023-03-05T07:41:35;100445.52;;;0.53;59.79
70521;BME280;58442;52.716;23.560;2023-03-05T07:43:37;100449.43;;;0.61;59.72
70521;BME280;58442;52.716;23.560;2023-03-05T07:45:40;100448.52;;;0.70;59.56
70521;BME280;58442;52.716;23.560;2023-03-05T07:47:49;100445.99;;;0.79;59.52
70521;BME280;58442;52.716;23.560;2023-03-05T07:49:50;100446.42;;;0.86;59.33
70521;BME280;58442;52.716;23.560;2023-03-05T07:51:52;100450.82;;;0.96;59.16
70521;BME280;58442;52.716;23.560;2023-03-05T07:53:55;100451.25;;;1.03;59.18
70521;BME280;58442;52.716;23.560;2023-03-05T07:56:04;100443.09;;;1.13;59.04
70521;BME280;58442;52.716;23.560;2023-03-05T07:58:06;100450.44;;;1.21;58.93
70521;BME280;58442;52.716;23.560;2023-03-05T08:00:08;100448.42;;;1.32;58.81
70521;BME280;58442;52.716;23.560;2023-03-05T08:02:11;100448.53;;;1.41;58.66
70521;BME280;58442;52.716;23.560;2023-03-05T08:04:19;100444.09;;;1.50;58.40
70521;BME280;58442;52.716;23.560;2023-03-05T08:06:20;100444.31;;;1.53;58.28
70521;BME280;58442;52.716;23.560;2023-03-05T08:08:21;100443.71;;;1.56;58.32
70521;BME280;58442;52.716;23.560;2023-03-05T08:10:23;100438.77;;;1.63;58.34
70521;BME280;58442;52.716;23.560;2023-03-05T08:12:34;100434.91;;;1.70;58.16
70521;BME280;58442;52.716;23.560;2023-03-05T08:14:35;100440.79;;;1.72;58.01
70521;BME280;58442;52.716;23.560;2023-03-05T08:16:38;100437.59;;;1.70;58.08
70521;BME280;58442;52.716;23.560;2023-03-05T08:18:40;100435.44;;;1.72;58.09
70521;BME280;58442;52.716;23.560;2023-03-05T08:20:49;100436.23;;;1.72;58.12
70521;BME280;58442;52.716;23.560;2023-03-05T08:22:50;100434.84;;;1.75;58.08
70521;BME280;58442;52.716;23.560;2023-03-05T08:25:57;100429.95;;;1.77;58.06
70521;BME280;58442;52.716;23.560;2023-03-05T08:27:58;100434.75;;;1.80;57.99
70521;BME280;58442;52.716;23.560;2023-03-05T08:30:01;100428.29;;;1.81;58.03
70521;BME280;58442;52.716;23.560;2023-03-05T08:32:12;100427.41;;;1.85;57.97
70521;BME280;58442;52.716;23.560;2023-03-05T08:34:14;100424.31;;;1.92;57.71
70521;BME280;58442;52.716;23.560;2023-03-05T08:36:15;100430.11;;;1.99;57.75
70521;BME280;58442;52.716;23.560;2023-03-05T08:38:17;100422.16;;;2.08;57.59
70521;BME280;58442;52.716;23.560;2023-03-05T08:40:27;100420.97;;;2.14;57.47
70521;BME280;58442;52.716;23.560;2023-03-05T08:42:28;100419.27;;;2.18;57.45
70521;BME280;58442;52.716;23.560;2023-03-05T08:44:30;100416.80;;;2.22;57.31
70521;BME280;58442;52.716;23.560;2023-03-05T08:46:32;100417.89;;;2.21;57.45
70521;BME280;58442;52.716;23.560;2023-03-05T08:48:42;100407.96;;;2.21;57.51
70521;BME280;58442;52.716;23.560;2023-03-05T08:50:44;100417.28;;;2.24;57.40
70521;BME280;58442;52.716;23.560;2023-03-05T08:52:45;100407.25;;;2.29;57.32
70521;BME280;58442;52.716;23.560;2023-03-05T08:54:47;100403.85;;;2.37;57.25
70521;BME280;58442;52.716;23.560;2023-03-05T08:56:57;100412.29;;;2.44;57.16
70521;BME280;58442;52.716;23.560;2023-03-05T08:58:58;100403.05;;;2.51;56.92
70521;BME280;58442;52.716;23.560;2023-03-05T09:01:00;100412.57;;;2.57;56.78
70521;BME280;58442;52.716;23.560;2023-03-05T09:03:01;100402.70;;;2.66;56.70
70521;BME280;58442;52.716;23.560;2023-03-05T09:05:12;100401.02;;;2.70;56.63
70521;BME280;58442;52.716;23.560;2023-03-05T09:07:14;100399.60;;;2.72;56.70
70521;BME280;58442;52.716;23.560;2023-03-05T09:09:15;100397.44;;;2.74;56.60
70521;BME280;58442;52.716;23.560;2023-03-05T09:11:20;100399.30;;;2.74;56.63
70521;BME280;58442;52.716;23.560;2023-03-05T09:13:27;100398.33;;;2.70;56.73
70521;BME280;58442;52.716;23.560;2023-03-05T09:15:30;100400.64;;;2.63;56.41
70521;BME280;58442;52.716;23.560;2023-03-05T09:17:31;100397.67;;;2.51;56.68
70521;BME280;58442;52.716;23.560;2023-03-05T09:19:32;100401.18;;;2.37;56.81
70521;BME280;58442;52.716;23.560;2023-03-05T09:21:42;100400.48;;;2.32;56.96
70521;BME280;58442;52.716;23.560;2023-03-05T09:23:44;100391.84;;;2.49;56.56
70521;BME280;58442;52.716;23.560;2023-03-05T09:25:47;100382.13;;;2.75;56.30
70521;BME280;58442;52.716;23.560;2023-03-05T09:27:49;100395.72;;;3.01;56.06
70521;BME280;58442;52.716;23.560;2023-03-05T09:29:57;100389.70;;;3.18;55.67
70521;BME280;58442;52.716;23.560;2023-03-05T09:31:58;100380.46;;;3.33;55.57
70521;BME280;58442;52.716;23.560;2023-03-05T09:34:00;100376.94;;;3.54;55.13
70521;BME280;58442;52.716;23.560;2023-03-05T09:36:02;100377.55;;;3.82;55.00
70521;BME280;58442;52.716;23.560;2023-03-05T09:38:12;100368.30;;;4.06;54.79
70521;BME280;58442;52.716;23.560;2023-03-05T09:40:16;100374.81;;;4.22;54.40
70521;BME280;58442;52.716;23.560;2023-03-05T09:42:28;100368.46;;;4.18;54.42
70521;BME280;58442;52.716;23.560;2023-03-05T09:46:52;100370.41;;;4.26;54.27
70521;BME280;58442;52.716;23.560;2023-03-05T09:49:07;100359.94;;;4.25;54.28
70521;BME280;58442;52.716;23.560;2023-03-05T09:51:16;100362.16;;;4.23;54.30
70521;BME280;58442;52.716;23.560;2023-03-05T09:53:39;100354.55;;;4.16;54.48
70521;BME280;58442;52.716;23.560;2023-03-05T09:55:55;100355.52;;;4.20;54.26
70521;BME280;58442;52.716;23.560;2023-03-05T09:58:04;100353.30;;;4.22;54.05
70521;BME280;58442;52.716;23.560;2023-03-05T10:02:29;100352.18;;;4.15;54.12
70521;BME280;58442;52.716;23.560;2023-03-05T10:06:55;100342.72;;;4.34;53.66
70521;BME280;58442;52.716;23.560;2023-03-05T10:13:40;100333.22;;;4.28;53.62
70521;BME280;58442;52.716;23.560;2023-03-05T10:15:51;100332.88;;;4.13;53.65
70521;BME280;58442;52.716;23.560;2023-03-05T10:22:21;100325.87;;;3.46;54.41
70521;BME280;58442;52.716;23.560;2023-03-05T10:36:17;100316.25;;;3.22;54.83
70521;BME280;58442;52.716;23.560;2023-03-05T10:49:31;100302.03;;;3.53;54.35
70521;BME280;58442;52.716;23.560;2023-03-05T10:51:52;100292.26;;;3.57;54.34
70521;BME280;58442;52.716;23.560;2023-03-05T10:56:26;100296.36;;;3.63;54.32
70521;BME280;58442;52.716;23.560;2023-03-05T10:58:29;100292.73;;;3.59;54.35
70521;BME280;58442;52.716;23.560;2023-03-05T11:00:30;100300.13;;;3.53;54.37
70521;BME280;58442;52.716;23.560;2023-03-05T11:04:48;100301.59;;;3.28;54.46
70521;BME280;58442;52.716;23.560;2023-03-05T11:06:50;100313.73;;;3.17;54.48
70521;BME280;58442;52.716;23.560;2023-03-05T11:08:51;100311.79;;;3.09;54.40
70521;BME280;58442;52.716;23.560;2023-03-05T11:11:09;100300.69;;;3.02;54.67
70521;BME280;58442;52.716;23.560;2023-03-05T11:13:22;100304.70;;;3.13;54.48
70521;BME280;58442;52.716;23.560;2023-03-05T11:15:27;100302.23;;;3.25;54.38
70521;BME280;58442;52.716;23.560;2023-03-05T11:17:43;100291.37;;;3.31;54.07
70521;BME280;58442;52.716;23.560;2023-03-05T11:19:48;100291.18;;;3.27;54.16
70521;BME280;58442;52.716;23.560;2023-03-05T11:24:04;100283.69;;;3.15;54.50
70521;BME280;58442;52.716;23.560;2023-03-05T11:26:21;100286.88;;;3.17;54.51
70521;BME280;58442;52.716;23.560;2023-03-05T11:28:33;100281.00;;;3.15;54.49
70521;BME280;58442;52.716;23.560;2023-03-05T11:30:37;100268.20;;;3.12;54.60
70521;BME280;58442;52.716;23.560;2023-03-05T11:32:42;100267.88;;;3.14;54.62